createdAt,value
2018-07-17T00:01:30.087Z,99.90
2018-07-17T00:03:59.175Z,99.90
2018-07-17T00:06:28.311Z,99.90
2018-07-17T00:08:57.394Z,99.90
2018-07-17T00:11:26.561Z,99.90
2018-07-17T00:13:55.645Z,99.90
2018-07-17T00:16:24.790Z,99.90
2018-07-17T00:18:53.941Z,99.90
2018-07-17T00:21:23.082Z,99.90
2018-07-17T00:23:52.175Z,99.90
2018-07-17T00:26:21.297Z,99.90
2018-07-17T00:28:50.366Z,99.90
2018-07-17T00:31:19.474Z,99.90
2018-07-17T00:33:48.587Z,99.90
2018-07-17T00:36:17.702Z,99.90
2018-07-17T00:38:46.798Z,99.90
2018-07-17T00:41:15.935Z,99.90
2018-07-17T00:43:45.020Z,99.90
2018-07-17T00:46:14.112Z,99.90
2018-07-17T00:48:43.260Z,99.90
2018-07-17T00:51:12.347Z,99.90
2018-07-17T00:53:41.578Z,99.90
2018-07-17T00:56:10.659Z,99.90
2018-07-17T00:58:39.815Z,99.90
2018-07-17T01:01:08.193Z,99.90
2018-07-17T01:03:42.544Z,99.90
2018-07-17T01:06:16.762Z,99.90
2018-07-17T01:08:51.323Z,99.90
2018-07-17T01:11:25.903Z,99.90
2018-07-17T01:13:59.115Z,99.90
2018-07-17T01:16:28.826Z,99.90
2018-07-17T01:18:57.915Z,99.90
2018-07-17T01:21:27.087Z,99.90
2018-07-17T01:23:56.216Z,99.90
2018-07-17T01:26:25.282Z,99.90
2018-07-17T01:28:54.383Z,99.90
2018-07-17T01:31:23.466Z,99.90
2018-07-17T01:33:52.562Z,99.90
2018-07-17T01:36:21.654Z,99.90
2018-07-17T01:38:50.772Z,99.90
2018-07-17T01:41:19.851Z,99.90
2018-07-17T01:43:48.938Z,99.90
2018-07-17T01:46:18.034Z,99.90
2018-07-17T01:48:47.198Z,99.90
2018-07-17T01:51:16.371Z,99.90
2018-07-17T01:53:45.557Z,99.90
2018-07-17T01:56:14.656Z,99.90
2018-07-17T01:58:43.771Z,99.90
2018-07-17T02:01:12.867Z,99.90
2018-07-17T02:03:41.982Z,99.90
2018-07-17T02:06:11.084Z,99.90
2018-07-17T02:08:40.188Z,99.90
2018-07-17T02:11:09.255Z,99.90
2018-07-17T02:13:38.397Z,99.90
2018-07-17T02:16:07.504Z,99.90
2018-07-17T02:21:05.350Z,99.90
2018-07-17T02:23:34.466Z,99.90
2018-07-17T02:26:03.589Z,99.90
2018-07-17T02:28:32.708Z,99.90
2018-07-17T02:31:01.794Z,99.90
2018-07-17T02:33:30.892Z,99.90
2018-07-17T02:36:00.031Z,99.90
2018-07-17T02:38:29.106Z,99.90
2018-07-17T02:40:58.211Z,99.90
2018-07-17T02:43:27.318Z,99.90
2018-07-17T02:45:56.439Z,99.90
2018-07-17T02:48:25.574Z,99.90
2018-07-17T02:50:54.760Z,99.90
2018-07-17T02:53:23.819Z,99.90
2018-07-17T02:55:52.935Z,99.90
2018-07-17T02:58:22.068Z,99.90
2018-07-17T03:00:51.171Z,99.90
2018-07-17T03:03:20.527Z,99.90
2018-07-17T03:05:49.624Z,99.90
2018-07-17T03:08:18.719Z,99.90
2018-07-17T03:10:48.175Z,99.90
2018-07-17T03:15:46.119Z,99.90
2018-07-17T03:18:15.180Z,99.90
2018-07-17T03:20:44.274Z,99.90
2018-07-17T03:23:13.330Z,99.90
2018-07-17T03:25:42.414Z,99.90
2018-07-17T03:28:11.550Z,99.90
2018-07-17T03:30:41.247Z,99.90
2018-07-17T03:33:10.351Z,99.90
2018-07-17T03:35:39.495Z,99.90
2018-07-17T03:38:08.782Z,99.90
2018-07-17T03:40:37.984Z,99.90
2018-07-17T03:43:07.063Z,99.90
2018-07-17T03:45:36.138Z,99.90
2018-07-17T03:48:05.388Z,99.90
2018-07-17T03:50:34.553Z,99.90
2018-07-17T03:53:03.694Z,99.90
2018-07-17T03:55:34.767Z,99.90
2018-07-17T03:58:06.195Z,99.90
2018-07-17T04:00:35.410Z,99.90
2018-07-17T04:03:04.544Z,99.90
2018-07-17T04:05:33.871Z,99.90
2018-07-17T04:10:31.646Z,99.90
2018-07-17T04:13:01.372Z,99.90
2018-07-17T04:15:30.555Z,99.90
2018-07-17T04:17:59.614Z,99.90
2018-07-17T04:20:28.704Z,99.90
2018-07-17T04:22:57.853Z,99.90
2018-07-17T04:25:26.905Z,99.90
2018-07-17T04:27:56.015Z,99.90
2018-07-17T04:30:25.096Z,99.90
2018-07-17T04:32:54.305Z,99.90
2018-07-17T04:35:23.390Z,99.90
2018-07-17T04:37:52.864Z,99.90
2018-07-17T04:40:21.967Z,99.90
2018-07-17T04:42:51.114Z,99.90
2018-07-17T04:45:20.210Z,99.90
2018-07-17T04:47:49.294Z,99.90
2018-07-17T04:50:18.439Z,99.90
2018-07-17T04:52:47.523Z,99.90
2018-07-17T04:55:16.610Z,99.90
2018-07-17T04:57:45.735Z,99.90
2018-07-17T05:00:14.825Z,99.90
2018-07-17T05:02:44.018Z,99.90
2018-07-17T05:05:13.182Z,99.90
2018-07-17T05:07:42.322Z,99.90
2018-07-17T05:10:11.430Z,99.90
2018-07-17T05:12:40.749Z,99.90
2018-07-17T05:15:10.319Z,99.90
2018-07-17T05:17:39.690Z,99.90
2018-07-17T05:20:08.804Z,99.90
2018-07-17T05:22:38.027Z,99.90
2018-07-17T05:25:07.293Z,99.90
2018-07-17T05:27:36.499Z,99.90
2018-07-17T05:30:06.096Z,99.90
2018-07-17T05:32:35.519Z,99.90
2018-07-17T05:35:04.776Z,99.90
2018-07-17T05:37:33.855Z,99.90
2018-07-17T05:40:02.983Z,99.90
2018-07-17T05:42:32.218Z,99.90
2018-07-17T05:45:01.320Z,99.90
2018-07-17T05:47:30.434Z,99.90
2018-07-17T05:49:59.506Z,99.90
2018-07-17T05:52:28.703Z,99.90
2018-07-17T05:54:57.796Z,99.90
2018-07-17T05:57:26.929Z,99.90
2018-07-17T05:59:56.015Z,99.90
2018-07-17T06:02:25.211Z,99.90
2018-07-17T06:04:54.306Z,99.90
2018-07-17T06:07:23.389Z,99.90
2018-07-17T06:09:52.474Z,99.90
2018-07-17T06:12:22.195Z,99.90
2018-07-17T06:14:51.287Z,99.90
2018-07-17T06:17:20.418Z,99.90
2018-07-17T06:19:49.501Z,99.90
2018-07-17T06:22:18.583Z,99.90
2018-07-17T06:24:47.715Z,99.90
2018-07-17T06:27:16.870Z,99.90
2018-07-17T06:29:45.971Z,99.90
2018-07-17T06:32:15.067Z,99.90
2018-07-17T06:34:44.169Z,99.90
2018-07-17T06:37:13.258Z,99.90
2018-07-17T06:39:42.366Z,99.90
2018-07-17T06:42:11.447Z,99.90
2018-07-17T06:44:40.559Z,99.90
2018-07-17T06:47:09.612Z,99.90
2018-07-17T06:49:38.714Z,99.90
2018-07-17T06:52:07.783Z,99.90
2018-07-17T06:54:36.878Z,99.90
2018-07-17T06:57:06.004Z,99.90
2018-07-17T06:59:35.141Z,99.90
2018-07-17T07:02:04.246Z,99.90
2018-07-17T07:04:33.350Z,99.90
2018-07-17T07:07:02.426Z,99.90
2018-07-17T07:09:31.502Z,99.90
2018-07-17T07:12:00.586Z,99.90
2018-07-17T07:14:29.745Z,99.90
2018-07-17T07:16:58.815Z,99.90
2018-07-17T07:19:27.911Z,99.90
2018-07-17T07:21:56.998Z,99.90
2018-07-17T07:24:26.094Z,99.90
2018-07-17T07:26:55.162Z,99.90
2018-07-17T07:29:24.302Z,99.90
2018-07-17T07:31:53.427Z,99.90
2018-07-17T07:34:22.528Z,99.90
2018-07-17T07:36:51.654Z,99.90
2018-07-17T07:39:20.771Z,98.40
2018-07-17T07:41:49.903Z,99.90
2018-07-17T07:44:19.319Z,98.20
2018-07-17T07:46:48.383Z,98.30
2018-07-17T07:49:17.543Z,97.30
2018-07-17T07:51:46.692Z,96.90
2018-07-17T07:54:15.803Z,98.20
2018-07-17T07:56:44.867Z,97.30
2018-07-17T07:59:14.018Z,97.60
2018-07-17T08:01:43.087Z,96.50
2018-07-17T08:04:12.231Z,96.30
2018-07-17T08:06:41.338Z,97.50
2018-07-17T08:09:10.387Z,96.20
2018-07-17T08:11:39.531Z,95.70
2018-07-17T08:14:08.592Z,95.10
2018-07-17T08:16:37.706Z,95.10
2018-07-17T08:19:06.826Z,94.70
2018-07-17T08:21:36.234Z,95.10
2018-07-17T08:24:05.294Z,95.80
2018-07-17T08:29:03.156Z,95.70
2018-07-17T08:31:32.278Z,96.30
2018-07-17T08:34:01.374Z,96.50
2018-07-17T08:36:30.498Z,97.30
2018-07-17T08:38:59.578Z,97.80
2018-07-17T08:41:28.700Z,95.40
2018-07-17T08:43:57.790Z,95.80
2018-07-17T08:46:26.911Z,95.30
2018-07-17T08:51:25.358Z,93.70
2018-07-17T08:53:54.459Z,93.60
2018-07-17T08:56:23.567Z,91.70
2018-07-17T08:58:52.695Z,91.60
2018-07-17T09:01:21.892Z,92.40
2018-07-17T09:03:50.968Z,91.80
2018-07-17T09:06:20.158Z,92.20
2018-07-17T09:08:49.966Z,91.30
2018-07-17T09:11:19.142Z,90.60
2018-07-17T09:13:48.186Z,90.40
2018-07-17T09:16:17.606Z,88.10
2018-07-17T09:18:46.780Z,87.30
2018-07-17T09:21:15.924Z,88.10
2018-07-17T09:23:45.031Z,87.70
2018-07-17T09:26:15.038Z,86.40
2018-07-17T09:28:44.730Z,85.60
2018-07-17T09:31:13.858Z,88.90
2018-07-17T09:33:43.001Z,85.70
2018-07-17T09:36:12.062Z,86.70
2018-07-17T09:38:41.146Z,87.30
2018-07-17T09:41:10.442Z,90.20
2018-07-17T09:43:39.554Z,87.00
2018-07-17T09:46:08.658Z,88.70
2018-07-17T09:48:37.738Z,87.30
2018-07-17T09:51:07.463Z,84.40
2018-07-17T09:53:36.539Z,79.60
2018-07-17T09:56:05.741Z,78.90
2018-07-17T09:58:34.846Z,79.10
2018-07-17T10:01:09.403Z,79.30
2018-07-17T10:03:38.571Z,76.70
2018-07-17T10:06:07.582Z,78.60
2018-07-17T10:08:36.669Z,73.50
2018-07-17T10:11:05.772Z,74.60
2018-07-17T10:13:34.906Z,72.00
2018-07-17T10:16:04.010Z,71.10
2018-07-17T10:18:33.181Z,73.10
2018-07-17T10:21:02.312Z,70.40
2018-07-17T10:23:31.430Z,69.50
2018-07-17T10:26:00.519Z,70.70
2018-07-17T10:28:29.635Z,71.40
2018-07-17T10:30:58.780Z,71.80
2018-07-17T10:33:27.925Z,73.20
2018-07-17T10:35:57.015Z,72.30
2018-07-17T10:38:26.223Z,67.80
2018-07-17T10:40:55.315Z,64.50
2018-07-17T10:43:24.410Z,66.20
2018-07-17T10:45:53.498Z,68.10
2018-07-17T10:48:22.718Z,66.00
2018-07-17T10:50:51.802Z,65.10
2018-07-17T10:53:20.936Z,63.70
2018-07-17T10:55:50.026Z,65.60
2018-07-17T10:58:19.151Z,62.80
2018-07-17T11:00:48.262Z,63.20
2018-07-17T11:03:17.370Z,63.50
2018-07-17T11:05:46.445Z,61.70
2018-07-17T11:08:15.579Z,58.10
2018-07-17T11:10:44.658Z,58.70
2018-07-17T11:13:13.734Z,57.50
2018-07-17T11:15:42.786Z,55.70
2018-07-17T11:18:11.874Z,56.40
2018-07-17T11:20:40.981Z,53.60
2018-07-17T11:23:10.059Z,56.20
2018-07-17T11:25:39.167Z,59.20
2018-07-17T11:28:08.270Z,54.60
2018-07-17T11:30:37.363Z,52.50
2018-07-17T11:33:06.450Z,53.00
2018-07-17T11:35:35.566Z,54.30
2018-07-17T11:38:04.698Z,53.60
2018-07-17T11:40:33.838Z,48.80
2018-07-17T11:43:02.945Z,51.80
2018-07-17T11:45:32.038Z,53.30
2018-07-17T11:48:01.151Z,50.80
2018-07-17T11:50:30.293Z,50.90
2018-07-17T11:52:59.386Z,50.20
2018-07-17T11:55:28.494Z,47.60
2018-07-17T11:57:57.620Z,48.90
2018-07-17T12:00:26.814Z,49.30
2018-07-17T12:02:56.121Z,47.60
2018-07-17T12:05:25.226Z,47.20
2018-07-17T12:07:54.386Z,46.30
2018-07-17T12:10:23.542Z,47.00
2018-07-17T12:12:52.948Z,51.60
2018-07-17T12:15:22.039Z,52.90
2018-07-17T12:17:51.126Z,54.40
2018-07-17T12:20:20.399Z,56.10
2018-07-17T12:22:49.386Z,58.40
2018-07-17T12:25:18.576Z,66.90
2018-07-17T12:27:47.672Z,76.30
2018-07-17T12:30:16.932Z,79.10
2018-07-17T12:32:46.011Z,80.60
2018-07-17T12:35:15.878Z,80.50
2018-07-17T12:37:44.966Z,76.00
2018-07-17T12:40:14.950Z,66.50
2018-07-17T12:42:44.068Z,67.20
2018-07-17T12:45:13.399Z,66.40
2018-07-17T12:47:42.450Z,71.00
2018-07-17T12:52:40.258Z,73.10
2018-07-17T12:55:09.361Z,70.80
2018-07-17T12:57:38.479Z,72.50
2018-07-17T13:00:07.676Z,73.30
2018-07-17T13:02:36.811Z,69.40
2018-07-17T13:05:06.299Z,68.10
2018-07-17T13:07:35.372Z,69.00
2018-07-17T13:10:04.950Z,72.30
2018-07-17T13:12:34.171Z,71.90
2018-07-17T13:15:03.754Z,71.50
2018-07-17T13:17:32.936Z,70.90
2018-07-17T13:20:01.964Z,70.00
2018-07-17T13:22:31.064Z,66.00
2018-07-17T13:25:00.140Z,65.80
2018-07-17T13:27:29.199Z,63.20
2018-07-17T13:29:58.278Z,67.30
2018-07-17T13:32:27.406Z,65.00
2018-07-17T13:34:56.498Z,64.10
2018-07-17T13:37:25.578Z,58.40
2018-07-17T13:39:54.744Z,58.50
2018-07-17T13:42:23.872Z,56.80
2018-07-17T13:44:52.998Z,58.70
2018-07-17T13:47:22.079Z,57.30
2018-07-17T13:49:51.230Z,55.10
2018-07-17T13:52:20.296Z,54.20
2018-07-17T13:54:49.378Z,50.30
2018-07-17T13:57:18.519Z,50.60
2018-07-17T14:02:16.297Z,53.00
2018-07-17T14:04:45.362Z,50.80
2018-07-17T14:07:14.440Z,50.40
2018-07-17T14:09:43.522Z,52.90
2018-07-17T14:12:12.629Z,52.80
2018-07-17T14:14:41.711Z,57.40
2018-07-17T14:17:10.910Z,60.20
2018-07-17T14:19:39.986Z,60.70
2018-07-17T14:22:09.074Z,60.30
2018-07-17T14:24:38.272Z,59.70
2018-07-17T14:27:07.419Z,60.00
2018-07-17T14:29:36.710Z,60.30
2018-07-17T14:32:05.857Z,59.80
2018-07-17T14:34:35.051Z,60.30
2018-07-17T14:37:04.245Z,58.10
2018-07-17T14:39:33.353Z,61.20
2018-07-17T14:42:02.462Z,62.30
2018-07-17T14:44:31.531Z,63.80
2018-07-17T14:47:00.649Z,65.20
2018-07-17T14:49:29.732Z,66.40
2018-07-17T14:51:58.818Z,64.20
2018-07-17T14:54:27.911Z,63.30
2018-07-17T14:56:57.070Z,62.70
2018-07-17T14:59:26.482Z,62.90
2018-07-17T15:01:55.591Z,61.60
2018-07-17T15:04:24.699Z,61.80
2018-07-17T15:06:53.770Z,62.90
2018-07-17T15:09:22.886Z,62.60
2018-07-17T15:11:52.086Z,62.00
2018-07-17T15:14:21.174Z,62.90
2018-07-17T15:16:50.280Z,65.40
2018-07-17T15:19:19.480Z,68.30
2018-07-17T15:21:48.609Z,72.60
2018-07-17T15:24:17.657Z,76.80
2018-07-17T15:26:46.797Z,77.20
2018-07-17T15:29:15.876Z,78.90
2018-07-17T15:31:46.092Z,78.90
2018-07-17T15:34:15.276Z,80.60
2018-07-17T15:36:44.338Z,81.80
2018-07-17T15:39:13.446Z,84.60
2018-07-17T15:41:42.528Z,84.60
2018-07-17T15:44:11.626Z,80.00
2018-07-17T15:46:40.707Z,82.40
2018-07-17T15:49:09.786Z,82.70
2018-07-17T15:51:38.894Z,87.30
2018-07-17T15:54:08.134Z,90.70
2018-07-17T15:56:37.220Z,92.40
2018-07-17T15:59:06.520Z,95.50
2018-07-17T16:01:35.578Z,96.40
2018-07-17T16:04:06.458Z,96.30
2018-07-17T16:06:36.774Z,98.10
2018-07-17T16:09:08.974Z,99.90
2018-07-17T16:11:39.164Z,99.90
2018-07-17T16:14:09.142Z,99.90
2018-07-17T16:16:38.699Z,99.90
2018-07-17T16:19:08.474Z,99.90
2018-07-17T16:21:38.327Z,99.90
2018-07-17T16:24:08.195Z,99.90
2018-07-17T16:26:38.572Z,99.90
2018-07-17T16:29:08.102Z,99.90
2018-07-17T16:31:37.967Z,99.90
2018-07-17T16:34:07.814Z,99.90
2018-07-17T16:36:37.092Z,99.90
2018-07-17T16:39:07.111Z,99.90
2018-07-17T16:41:36.203Z,99.60
2018-07-17T16:44:05.322Z,99.10
2018-07-17T16:46:34.410Z,98.50
2018-07-17T16:51:32.246Z,95.90
2018-07-17T16:54:01.377Z,95.70
2018-07-17T16:56:30.450Z,95.80
2018-07-17T16:58:59.562Z,95.30
2018-07-17T17:01:28.671Z,93.10
2018-07-17T17:03:57.770Z,93.10
2018-07-17T17:06:26.950Z,95.70
2018-07-17T17:08:56.118Z,95.70
2018-07-17T17:11:25.134Z,94.80
2018-07-17T17:13:54.238Z,94.30
2018-07-17T17:16:23.325Z,94.10
2018-07-17T17:18:52.530Z,93.20
2018-07-17T17:21:21.620Z,94.80
2018-07-17T17:23:50.732Z,95.60
2018-07-17T17:26:19.817Z,95.60
2018-07-17T17:28:48.946Z,94.20
2018-07-17T17:31:18.078Z,93.20
2018-07-17T17:33:47.198Z,93.70
2018-07-17T17:36:16.339Z,94.70
2018-07-17T17:38:45.437Z,94.70
2018-07-17T17:41:14.627Z,95.40
2018-07-17T17:43:43.856Z,95.90
2018-07-17T17:46:12.987Z,97.10
2018-07-17T17:48:42.094Z,98.90
2018-07-17T17:51:11.247Z,99.90
2018-07-17T17:53:40.338Z,99.90
2018-07-17T17:56:09.570Z,99.90
2018-07-17T17:58:38.662Z,99.90
2018-07-17T18:01:07.821Z,99.90
2018-07-17T18:03:36.883Z,99.90
2018-07-17T18:06:05.971Z,99.20
2018-07-17T18:08:35.067Z,98.80
2018-07-17T18:11:04.174Z,99.20
2018-07-17T18:13:33.242Z,99.80
2018-07-17T18:16:02.347Z,99.10
2018-07-17T18:18:31.543Z,97.50
2018-07-17T18:21:00.626Z,98.50
2018-07-17T18:23:29.728Z,99.90
2018-07-17T18:25:58.854Z,99.90
2018-07-17T18:28:27.941Z,99.90
2018-07-17T18:30:57.098Z,99.90
2018-07-17T18:33:26.182Z,99.90
2018-07-17T18:35:55.262Z,99.90
2018-07-17T18:38:24.422Z,99.90
2018-07-17T18:40:53.630Z,99.90
2018-07-17T18:43:22.683Z,99.90
2018-07-17T18:45:51.799Z,99.90
2018-07-17T18:48:20.945Z,99.90
2018-07-17T18:50:50.023Z,99.90
2018-07-17T18:53:19.117Z,99.90
2018-07-17T18:55:48.207Z,99.90
2018-07-17T18:58:17.375Z,99.90
2018-07-17T19:00:46.439Z,99.90
2018-07-17T19:03:15.591Z,99.90
2018-07-17T19:05:44.659Z,99.90
2018-07-17T19:08:13.807Z,99.90
2018-07-17T19:10:42.883Z,99.90
2018-07-17T19:13:12.039Z,99.90
2018-07-17T19:15:41.104Z,99.90
2018-07-17T19:18:10.229Z,99.90
2018-07-17T19:23:08.940Z,99.90
2018-07-17T19:25:38.010Z,99.90
2018-07-17T19:28:07.192Z,99.90
2018-07-17T19:30:36.267Z,99.90
2018-07-17T19:33:05.565Z,99.90
2018-07-17T19:35:34.721Z,99.90
2018-07-17T19:38:03.788Z,99.90
2018-07-17T19:40:32.883Z,99.90
2018-07-17T19:43:02.362Z,99.90
2018-07-17T19:45:31.441Z,99.90
2018-07-17T19:48:00.628Z,99.90
2018-07-17T19:50:29.682Z,99.90
2018-07-17T19:52:58.800Z,99.90
2018-07-17T19:55:28.023Z,99.90
2018-07-17T19:57:57.134Z,99.90
2018-07-17T20:00:26.328Z,99.90
2018-07-17T20:02:55.455Z,99.90
2018-07-17T20:05:24.532Z,99.90
2018-07-17T20:07:53.657Z,99.90
2018-07-17T20:10:22.753Z,99.90
2018-07-17T20:12:51.879Z,99.90
2018-07-17T20:15:21.000Z,99.90
2018-07-17T20:17:50.127Z,99.90
2018-07-17T20:20:19.214Z,99.90
2018-07-17T20:22:48.306Z,99.90
2018-07-17T20:25:17.504Z,99.90
2018-07-17T20:27:46.607Z,99.90
2018-07-17T20:30:15.781Z,99.90
2018-07-17T20:32:44.924Z,99.90
2018-07-17T20:35:14.035Z,99.90
2018-07-17T20:37:43.117Z,99.90
2018-07-17T20:40:12.227Z,99.90
2018-07-17T20:42:41.338Z,99.90
2018-07-17T20:45:10.468Z,99.90
2018-07-17T20:47:39.571Z,99.90
2018-07-17T20:50:08.703Z,99.90
2018-07-17T20:52:37.788Z,99.90
2018-07-17T20:55:06.891Z,99.90
2018-07-17T20:57:36.069Z,99.90
2018-07-17T21:00:10.851Z,99.90
2018-07-17T21:02:40.311Z,99.90
2018-07-17T21:05:09.572Z,99.90
2018-07-17T21:07:38.806Z,99.90
2018-07-17T21:10:07.942Z,99.90
2018-07-17T21:12:37.072Z,99.90
2018-07-17T21:15:06.210Z,99.90
2018-07-17T21:17:35.294Z,99.90
2018-07-17T21:20:04.563Z,99.90
2018-07-17T21:22:34.403Z,99.90
2018-07-17T21:25:03.541Z,99.90
2018-07-17T21:27:32.650Z,99.90
2018-07-17T21:30:01.759Z,99.90
2018-07-17T21:32:30.863Z,99.90
2018-07-17T21:34:59.977Z,99.90
2018-07-17T21:37:29.266Z,99.90
2018-07-17T21:39:58.818Z,99.90
2018-07-17T21:42:27.929Z,99.90
2018-07-17T21:44:57.066Z,99.90
2018-07-17T21:47:26.267Z,99.90
2018-07-17T21:49:55.326Z,99.90
2018-07-17T21:52:24.438Z,99.90
2018-07-17T21:54:53.543Z,99.90
2018-07-17T21:57:22.648Z,99.90
2018-07-17T21:59:51.742Z,99.90
2018-07-17T22:02:20.839Z,99.90
2018-07-17T22:04:49.942Z,99.90
2018-07-17T22:07:19.145Z,99.90
2018-07-17T22:09:48.286Z,99.90
2018-07-17T22:12:17.362Z,99.90
2018-07-17T22:14:47.133Z,99.90
2018-07-17T22:19:44.943Z,99.90
2018-07-17T22:22:14.065Z,99.90
2018-07-17T22:24:43.159Z,99.90
2018-07-17T22:27:12.243Z,99.90
2018-07-17T22:29:41.338Z,99.90
2018-07-17T22:32:10.501Z,99.90
2018-07-17T22:34:39.555Z,99.90
2018-07-17T22:37:08.725Z,99.90
2018-07-17T22:39:37.790Z,99.90
2018-07-17T22:42:07.235Z,99.90
2018-07-17T22:44:36.362Z,99.90
2018-07-17T22:47:05.522Z,99.90
2018-07-17T22:49:34.610Z,99.90
2018-07-17T22:52:03.706Z,99.90
2018-07-17T22:54:32.776Z,99.90
2018-07-17T22:57:01.872Z,99.90
2018-07-17T22:59:30.963Z,99.90
2018-07-17T23:02:00.138Z,99.90
2018-07-17T23:04:29.186Z,99.90
2018-07-17T23:06:58.274Z,99.90
2018-07-17T23:09:27.362Z,99.90
2018-07-17T23:11:57.298Z,99.90
2018-07-17T23:14:26.378Z,99.90
2018-07-17T23:16:55.504Z,99.90
2018-07-17T23:19:24.575Z,99.90
2018-07-17T23:21:53.674Z,99.90
2018-07-17T23:24:22.740Z,99.90
2018-07-17T23:26:51.911Z,99.90
2018-07-17T23:29:21.010Z,99.90
2018-07-17T23:31:50.131Z,99.90
2018-07-17T23:34:19.233Z,99.90
2018-07-17T23:36:48.454Z,99.90
2018-07-17T23:39:17.713Z,99.90
2018-07-17T23:41:46.810Z,99.90
2018-07-17T23:44:15.933Z,99.90
2018-07-17T23:46:45.031Z,99.90
2018-07-17T23:49:18.314Z,99.90
2018-07-17T23:51:47.446Z,99.90
2018-07-17T23:54:16.549Z,99.90
2018-07-17T23:56:45.635Z,99.90
2018-07-17T23:59:14.758Z,99.90
